Time;durP1;ratioP1;P1;durP2;ratioP2;P2;SDS_P1;SDS_P2;PMS_P1;PMS_P2;Temp;Humidity;BMP_temperature;BMP_pressure;BME280_temperature;BME280_humidity;BME280_pressure;Samples;Min_cycle;Max_cycle;Signal;HPM_P1;HPM_P2
2023/10/18 00:00:57;;;;;;;22.70;11.07;;;;;;;;;;4932712;29;20042;-61
2023/10/18 00:03:25;;;;;;;18.75;11.32;;;;;;;;;;4914923;29;20035;-61
2023/10/18 00:05:51;;;;;;;19.13;10.68;;;;;;;;;;4932761;29;20040;-61
2023/10/18 00:08:17;;;;;;;21.10;10.77;;;;;;;;;;4926096;29;20160;-61
2023/10/18 00:10:42;;;;;;;17.85;10.55;;;;;;;;;;4931312;29;20389;-61
2023/10/18 00:13:08;;;;;;;19.48;10.98;;;;;;;;;;4919958;29;20078;-61
2023/10/18 00:15:34;;;;;;;20.92;11.95;;;;;;;;;;4936620;29;20043;-61
2023/10/18 00:17:59;;;;;;;19.45;11.27;;;;;;;;;;4913519;29;20424;-61
2023/10/18 00:20:25;;;;;;;19.85;11.52;;;;;;;;;;4931898;29;20539;-61
2023/10/18 00:22:51;;;;;;;18.85;11.27;;;;;;;;;;4933976;29;20063;-61
2023/10/18 00:25:17;;;;;;;19.42;10.85;;;;;;;;;;4932253;29;20031;-60
2023/10/18 00:27:45;;;;;;;17.67;10.80;;;;;;;;;;4939786;29;20036;-60
2023/10/18 00:30:11;;;;;;;20.33;11.38;;;;;;;;;;4933577;29;20027;-60
2023/10/18 00:32:38;;;;;;;17.90;11.48;;;;;;;;;;4933031;29;20115;-61
2023/10/18 00:35:12;;;;;;;19.80;10.93;;;;;;;;;;4929001;29;20491;-62
2023/10/18 00:37:41;;;;;;;19.25;10.68;;;;;;;;;;4934153;29;20028;-61
2023/10/18 00:40:19;;;;;;;18.65;11.25;;;;;;;;;;4923855;29;20126;-61
2023/10/18 00:42:44;;;;;;;17.83;11.32;;;;;;;;;;4933143;29;20040;-61
2023/10/18 00:45:10;;;;;;;19.15;10.75;;;;;;;;;;4931763;29;20032;-61
2023/10/18 00:47:36;;;;;;;20.35;11.15;;;;;;;;;;4919071;29;20027;-61
2023/10/18 00:50:02;;;;;;;18.10;10.90;;;;;;;;;;4931265;29;20559;-62
2023/10/18 00:52:30;;;;;;;17.52;10.45;;;;;;;;;;4943872;29;20039;-61
2023/10/18 00:54:55;;;;;;;22.48;11.68;;;;;;;;;;4934346;29;20035;-61
2023/10/18 00:57:24;;;;;;;19.92;10.82;;;;;;;;;;4934185;29;20034;-61
2023/10/18 00:59:53;;;;;;;24.65;11.77;;;;;;;;;;4946234;28;20044;-61
2023/10/18 01:02:19;;;;;;;22.10;11.25;;;;;;;;;;4917950;29;20040;-61
2023/10/18 01:04:46;;;;;;;21.65;12.32;;;;;;;;;;4936266;29;20108;-61
2023/10/18 01:07:15;;;;;;;24.40;11.77;;;;;;;;;;4935234;29;20385;-61
2023/10/18 01:09:49;;;;;;;17.42;10.70;;;;;;;;;;4951104;29;20035;-61
2023/10/18 01:12:15;;;;;;;18.15;10.90;;;;;;;;;;4914217;29;20052;-61
2023/10/18 01:14:44;;;;;;;19.60;10.40;;;;;;;;;;4930753;29;20032;-62
2023/10/18 01:17:10;;;;;;;19.17;11.50;;;;;;;;;;4930454;29;20456;-62
2023/10/18 01:19:36;;;;;;;19.20;11.02;;;;;;;;;;4925279;29;20111;-61
2023/10/18 01:22:04;;;;;;;19.02;10.77;;;;;;;;;;4930299;29;20035;-61
2023/10/18 01:24:36;;;;;;;17.40;10.65;;;;;;;;;;4933139;29;20028;-61
2023/10/18 01:27:02;;;;;;;20.38;11.30;;;;;;;;;;4918787;29;20433;-61
2023/10/18 01:29:29;;;;;;;21.52;11.23;;;;;;;;;;4935819;29;20044;-61
2023/10/18 01:31:57;;;;;;;18.20;10.80;;;;;;;;;;4932696;29;20044;-61
2023/10/18 01:34:23;;;;;;;18.42;10.95;;;;;;;;;;4916535;29;20124;-62
2023/10/18 01:36:52;;;;;;;21.63;10.88;;;;;;;;;;4932873;29;20461;-61
2023/10/18 01:39:18;;;;;;;19.98;10.95;;;;;;;;;;4909626;29;20393;-61
2023/10/18 01:41:53;;;;;;;23.38;11.25;;;;;;;;;;4902544;29;20040;-61
2023/10/18 01:44:27;;;;;;;21.27;11.00;;;;;;;;;;4925745;29;20035;-61
2023/10/18 01:46:55;;;;;;;23.23;11.30;;;;;;;;;;4933232;29;20469;-61
2023/10/18 01:49:24;;;;;;;22.05;11.18;;;;;;;;;;4904616;29;20047;-61
2023/10/18 01:51:52;;;;;;;20.27;11.13;;;;;;;;;;4908558;29;20059;-61
2023/10/18 01:54:25;;;;;;;22.67;11.93;;;;;;;;;;4923515;29;20050;-61
2023/10/18 01:56:52;;;;;;;22.42;11.75;;;;;;;;;;4912391;29;20089;-62
2023/10/18 01:59:18;;;;;;;22.67;11.13;;;;;;;;;;4898051;29;20470;-61
2023/10/18 02:01:44;;;;;;;21.08;11.68;;;;;;;;;;4912524;29;20035;-61
2023/10/18 02:04:11;;;;;;;20.38;11.07;;;;;;;;;;4938808;29;20046;-61
2023/10/18 02:06:37;;;;;;;24.13;11.00;;;;;;;;;;4948159;29;20396;-61
2023/10/18 02:09:10;;;;;;;22.75;11.48;;;;;;;;;;4934119;29;20036;-61
2023/10/18 02:11:35;;;;;;;20.67;11.25;;;;;;;;;;4933726;29;20127;-60
2023/10/18 02:14:02;;;;;;;20.23;11.70;;;;;;;;;;4933213;29;20063;-60
2023/10/18 02:16:28;;;;;;;20.95;11.05;;;;;;;;;;4933471;29;20027;-62
2023/10/18 02:18:54;;;;;;;20.70;11.50;;;;;;;;;;4917101;29;20046;-60
2023/10/18 02:21:22;;;;;;;22.60;11.63;;;;;;;;;;4932195;29;20110;-61
2023/10/18 02:23:50;;;;;;;21.92;11.20;;;;;;;;;;4933991;29;20099;-60
2023/10/18 02:26:32;;;;;;;22.30;11.13;;;;;;;;;;4933042;29;20106;-60
2023/10/18 02:29:11;;;;;;;20.20;10.65;;;;;;;;;;4918281;29;20039;-60
2023/10/18 02:31:37;;;;;;;21.13;11.00;;;;;;;;;;4934555;29;20034;-60
2023/10/18 02:34:04;;;;;;;21.13;11.13;;;;;;;;;;4933968;29;20024;-60
2023/10/18 02:36:33;;;;;;;19.67;10.70;;;;;;;;;;4916592;29;20393;-60
2023/10/18 02:38:59;;;;;;;22.20;11.88;;;;;;;;;;4933831;29;20031;-60
2023/10/18 02:41:27;;;;;;;19.77;10.45;;;;;;;;;;4936218;29;20032;-60
2023/10/18 02:43:54;;;;;;;21.05;11.90;;;;;;;;;;4934349;29;20027;-61
2023/10/18 02:46:23;;;;;;;21.67;11.68;;;;;;;;;;4932708;29;20036;-60
2023/10/18 02:48:53;;;;;;;20.50;11.15;;;;;;;;;;4930884;29;20031;-60
2023/10/18 02:51:24;;;;;;;22.70;11.10;;;;;;;;;;4932980;29;20366;-60
2023/10/18 02:54:16;;;;;;;22.75;12.73;;;;;;;;;;4932863;29;20039;-60
2023/10/18 02:56:52;;;;;;;23.52;11.15;;;;;;;;;;4932954;29;20043;-61
2023/10/18 02:59:24;;;;;;;20.45;11.43;;;;;;;;;;4916447;29;20040;-61
2023/10/18 03:01:52;;;;;;;20.83;11.60;;;;;;;;;;4933601;29;20028;-60
2023/10/18 03:04:19;;;;;;;20.85;11.48;;;;;;;;;;4933024;29;20040;-60
2023/10/18 03:06:47;;;;;;;20.80;11.30;;;;;;;;;;4916541;29;20396;-60
2023/10/18 03:10:02;;;;;;;21.73;11.10;;;;;;;;;;4931133;29;20043;-61
2023/10/18 03:12:24;;;;;;;24.50;11.35;;;;;;;;;;4919447;29;20047;-60
2023/10/18 03:14:54;;;;;;;21.10;11.27;;;;;;;;;;4933071;29;20084;-61
2023/10/18 03:17:23;;;;;;;22.92;11.27;;;;;;;;;;4932623;29;20119;-61
2023/10/18 03:19:56;;;;;;;23.05;11.63;;;;;;;;;;4932002;29;20039;-60
2023/10/18 03:22:25;;;;;;;23.38;11.57;;;;;;;;;;4930906;29;20042;-61
2023/10/18 03:24:55;;;;;;;21.15;11.15;;;;;;;;;;4933387;29;20123;-60
2023/10/18 03:27:33;;;;;;;25.67;12.00;;;;;;;;;;4931306;29;20115;-60
2023/10/18 03:29:59;;;;;;;21.40;10.48;;;;;;;;;;4932639;29;20545;-61
2023/10/18 03:32:25;;;;;;;22.80;11.27;;;;;;;;;;4915808;29;20047;-60
2023/10/18 03:34:54;;;;;;;22.25;11.07;;;;;;;;;;4932494;29;20118;-60
2023/10/18 03:37:24;;;;;;;22.00;11.05;;;;;;;;;;4929389;29;20091;-60
2023/10/18 03:39:53;;;;;;;23.55;11.23;;;;;;;;;;4934145;29;20045;-60
2023/10/18 03:42:31;;;;;;;24.80;10.63;;;;;;;;;;4932905;29;20035;-61
2023/10/18 03:45:21;;;;;;;19.83;10.60;;;;;;;;;;4932089;29;20028;-60
2023/10/18 03:47:57;;;;;;;18.83;10.50;;;;;;;;;;4931474;29;20135;-60
2023/10/18 03:50:32;;;;;;;20.25;10.40;;;;;;;;;;4931101;29;20081;-61
2023/10/18 03:52:58;;;;;;;20.25;10.57;;;;;;;;;;4935218;29;20020;-61
2023/10/18 03:55:32;;;;;;;21.27;10.77;;;;;;;;;;4934884;29;20512;-60
2023/10/18 03:58:01;;;;;;;18.65;10.25;;;;;;;;;;4915332;29;20075;-62
2023/10/18 04:02:56;;;;;;;23.25;10.45;;;;;;;;;;4933618;29;20039;-62
2023/10/18 04:05:32;;;;;;;20.73;10.88;;;;;;;;;;4931622;29;20039;-61
2023/10/18 04:07:57;;;;;;;21.45;10.82;;;;;;;;;;4931950;29;20043;-62
2023/10/18 04:10:24;;;;;;;19.83;11.00;;;;;;;;;;4930931;29;20032;-61
2023/10/18 04:12:50;;;;;;;23.08;10.50;;;;;;;;;;4933650;29;20095;-61
2023/10/18 04:15:23;;;;;;;20.48;11.07;;;;;;;;;;4932477;29;20031;-62
2023/10/18 04:20:52;;;;;;;18.90;10.02;;;;;;;;;;4857349;29;20171;-61
2023/10/18 04:23:26;;;;;;;21.30;10.57;;;;;;;;;;4917584;29;20074;-61
2023/10/18 04:26:03;;;;;;;21.58;10.52;;;;;;;;;;4916628;29;20031;-62
2023/10/18 04:28:38;;;;;;;23.08;10.68;;;;;;;;;;4932487;29;20071;-61
2023/10/18 04:31:11;;;;;;;20.67;10.48;;;;;;;;;;4931736;29;20035;-62
2023/10/18 04:33:48;;;;;;;22.08;10.13;;;;;;;;;;4931754;29;20039;-63
2023/10/18 04:36:15;;;;;;;19.02;10.45;;;;;;;;;;4935844;29;20027;-62
2023/10/18 04:38:46;;;;;;;22.02;10.45;;;;;;;;;;4936258;29;20071;-61
2023/10/18 04:41:36;;;;;;;20.65;11.00;;;;;;;;;;4922301;29;20039;-61
2023/10/18 04:46:37;;;;;;;19.00;10.63;;;;;;;;;;4936464;29;20046;-61
2023/10/18 04:49:50;;;;;;;17.98;10.55;;;;;;;;;;4937660;29;20040;-61
2023/10/18 04:51:54;;;;;;;20.27;10.23;;;;;;;;;;4930656;29;20047;-61
2023/10/18 04:54:27;;;;;;;22.75;10.98;;;;;;;;;;4945665;29;20096;-61
2023/10/18 04:56:56;;;;;;;20.17;10.43;;;;;;;;;;4935900;29;20035;-61
2023/10/18 05:04:32;;;;;;;19.75;10.60;;;;;;;;;;4934501;29;20107;-61
2023/10/18 05:07:14;;;;;;;19.25;10.77;;;;;;;;;;4933893;29;20070;-61
2023/10/18 05:09:43;;;;;;;22.73;10.82;;;;;;;;;;4931108;29;20520;-62
2023/10/18 05:12:27;;;;;;;21.65;10.65;;;;;;;;;;4935899;29;20059;-61
2023/10/18 05:17:23;;;;;;;20.73;10.02;;;;;;;;;;4935896;29;20027;-61
2023/10/18 05:19:49;;;;;;;22.20;10.48;;;;;;;;;;4936543;29;20403;-60
2023/10/18 05:22:25;;;;;;;21.55;11.00;;;;;;;;;;4936672;29;20031;-60
2023/10/18 05:28:08;;;;;;;19.08;9.48;;;;;;;;;;4955741;29;20046;-60
2023/10/18 05:38:52;;;;;;;18.92;10.50;;;;;;;;;;4905832;29;20055;-62
2023/10/18 05:43:45;;;;;;;22.88;10.68;;;;;;;;;;4936615;29;20043;-62
2023/10/18 05:46:11;;;;;;;21.77;11.20;;;;;;;;;;4935302;29;20533;-61
2023/10/18 05:48:41;;;;;;;22.60;10.65;;;;;;;;;;4935592;29;20160;-62
2023/10/18 05:51:26;;;;;;;24.55;11.18;;;;;;;;;;4936215;29;20036;-61
2023/10/18 05:54:04;;;;;;;21.83;10.13;;;;;;;;;;4919901;29;20039;-60
2023/10/18 05:56:31;;;;;;;20.17;10.15;;;;;;;;;;4934566;29;20553;-63
2023/10/18 06:01:41;;;;;;;21.77;10.25;;;;;;;;;;4935155;29;20070;-63
2023/10/18 06:04:06;;;;;;;19.75;10.00;;;;;;;;;;4930328;29;20056;-63
2023/10/18 06:06:37;;;;;;;20.10;10.18;;;;;;;;;;4919544;29;20031;-60
2023/10/18 06:09:11;;;;;;;20.20;10.45;;;;;;;;;;4930973;29;20037;-62
2023/10/18 06:11:37;;;;;;;22.88;10.80;;;;;;;;;;4920109;29;20099;-62
2023/10/18 06:14:08;;;;;;;21.20;9.52;;;;;;;;;;4936654;29;20063;-62
2023/10/18 06:16:34;;;;;;;22.70;11.30;;;;;;;;;;4903013;29;20036;-61
2023/10/18 06:19:02;;;;;;;23.27;11.02;;;;;;;;;;4935794;29;20039;-62
2023/10/18 06:21:28;;;;;;;19.38;10.68;;;;;;;;;;4934741;29;20040;-61
2023/10/18 06:23:56;;;;;;;21.38;10.70;;;;;;;;;;4918925;29;20030;-61
2023/10/18 06:26:28;;;;;;;19.42;10.35;;;;;;;;;;4934715;29;20110;-63
2023/10/18 06:29:01;;;;;;;21.58;11.05;;;;;;;;;;4935917;29;20028;-62
2023/10/18 06:31:30;;;;;;;24.55;10.95;;;;;;;;;;4917591;29;20396;-63
2023/10/18 06:34:04;;;;;;;19.17;10.80;;;;;;;;;;4918950;29;20055;-61
2023/10/18 06:36:32;;;;;;;19.10;10.23;;;;;;;;;;4934225;29;20489;-61
2023/10/18 06:39:03;;;;;;;26.30;10.93;;;;;;;;;;4934905;29;20027;-61
2023/10/18 06:41:30;;;;;;;20.77;10.77;;;;;;;;;;4933655;29;20067;-62
2023/10/18 06:43:58;;;;;;;23.27;10.88;;;;;;;;;;4935038;29;20480;-64
2023/10/18 06:46:26;;;;;;;19.95;10.90;;;;;;;;;;4933814;29;20044;-63
2023/10/18 06:48:55;;;;;;;22.60;10.70;;;;;;;;;;4937157;29;20027;-60
2023/10/18 06:51:40;;;;;;;21.33;10.82;;;;;;;;;;4941211;29;20039;-62
2023/10/18 06:54:16;;;;;;;19.90;10.23;;;;;;;;;;4935137;29;20036;-61
2023/10/18 06:56:47;;;;;;;22.08;10.50;;;;;;;;;;4915711;29;20122;-62
2023/10/18 06:59:13;;;;;;;18.60;10.40;;;;;;;;;;4916051;29;20039;-62
2023/10/18 07:01:41;;;;;;;18.75;10.07;;;;;;;;;;4925691;29;20114;-63
2023/10/18 07:04:18;;;;;;;19.48;9.73;;;;;;;;;;4935343;29;20031;-62
2023/10/18 07:06:46;;;;;;;22.67;9.63;;;;;;;;;;4934165;29;20513;-61
2023/10/18 07:09:25;;;;;;;21.55;9.57;;;;;;;;;;4934572;29;20339;-62
2023/10/18 07:11:57;;;;;;;19.88;10.15;;;;;;;;;;4928525;29;20052;-62
2023/10/18 07:14:26;;;;;;;17.65;9.60;;;;;;;;;;4915498;29;20059;-64
2023/10/18 07:16:55;;;;;;;17.88;9.80;;;;;;;;;;4915709;29;20047;-63
2023/10/18 07:19:24;;;;;;;17.63;9.45;;;;;;;;;;4899214;29;20028;-63
2023/10/18 07:21:51;;;;;;;17.25;9.30;;;;;;;;;;4893633;29;20062;-63
2023/10/18 07:24:20;;;;;;;16.95;9.85;;;;;;;;;;4913622;29;20040;-62
2023/10/18 07:26:47;;;;;;;19.10;9.52;;;;;;;;;;4901248;29;20036;-62
2023/10/18 07:29:16;;;;;;;18.50;9.93;;;;;;;;;;4896556;29;20033;-62
2023/10/18 07:31:44;;;;;;;16.52;9.43;;;;;;;;;;4897972;29;20036;-63
2023/10/18 07:34:19;;;;;;;20.17;9.77;;;;;;;;;;4898714;29;20066;-62
2023/10/18 07:36:45;;;;;;;18.65;9.73;;;;;;;;;;4924482;29;20928;-61
2023/10/18 07:39:12;;;;;;;18.90;9.70;;;;;;;;;;4934236;29;20136;-61
2023/10/18 07:41:38;;;;;;;17.85;9.80;;;;;;;;;;4909479;29;20033;-62
2023/10/18 07:44:07;;;;;;;19.42;9.63;;;;;;;;;;4906914;29;20047;-62
2023/10/18 07:46:41;;;;;;;16.70;9.77;;;;;;;;;;4908056;29;20126;-61
2023/10/18 07:49:14;;;;;;;16.42;9.35;;;;;;;;;;4915652;29;20504;-60
2023/10/18 07:51:48;;;;;;;16.50;9.35;;;;;;;;;;4885704;29;20104;-61
2023/10/18 07:54:14;;;;;;;17.25;9.45;;;;;;;;;;4895965;29;20048;-61
2023/10/18 07:56:48;;;;;;;15.50;9.32;;;;;;;;;;4895274;29;20051;-61
2023/10/18 07:59:30;;;;;;;18.05;9.60;;;;;;;;;;4915433;29;20040;-60
2023/10/18 08:04:47;;;;;;;17.00;9.07;;;;;;;;;;4904632;29;20063;-60
2023/10/18 08:07:20;;;;;;;18.67;9.40;;;;;;;;;;4899938;29;20036;-61
2023/10/18 08:09:51;;;;;;;16.42;8.63;;;;;;;;;;4897106;29;20907;-60
2023/10/18 08:14:48;;;;;;;17.48;9.25;;;;;;;;;;4937210;29;20066;-61
2023/10/18 08:17:30;;;;;;;19.60;8.88;;;;;;;;;;4937522;29;20070;-61
2023/10/18 08:20:17;;;;;;;19.25;9.00;;;;;;;;;;4920831;29;20043;-63
2023/10/18 08:22:42;;;;;;;15.48;9.13;;;;;;;;;;4935721;29;20031;-62
2023/10/18 08:25:21;;;;;;;15.73;8.73;;;;;;;;;;4937563;29;20043;-62
2023/10/18 08:27:50;;;;;;;16.27;8.63;;;;;;;;;;4936876;29;20360;-60
2023/10/18 08:30:30;;;;;;;17.77;9.25;;;;;;;;;;4938006;29;20547;-62
2023/10/18 08:32:55;;;;;;;15.40;8.55;;;;;;;;;;4937331;29;20032;-60
2023/10/18 08:35:21;;;;;;;15.55;9.43;;;;;;;;;;4920438;29;20042;-60
2023/10/18 08:37:47;;;;;;;17.77;9.30;;;;;;;;;;4936943;29;20914;-61
2023/10/18 08:40:28;;;;;;;17.08;9.52;;;;;;;;;;4937377;29;20035;-61
2023/10/18 08:43:05;;;;;;;22.58;9.00;;;;;;;;;;4936844;29;20059;-61
2023/10/18 08:45:53;;;;;;;15.20;8.82;;;;;;;;;;4935241;29;20036;-61
2023/10/18 08:48:28;;;;;;;16.75;9.32;;;;;;;;;;4937264;29;20047;-61
2023/10/18 08:50:55;;;;;;;15.07;8.73;;;;;;;;;;4935995;29;20077;-61
2023/10/18 08:53:23;;;;;;;17.65;8.60;;;;;;;;;;4932413;29;20393;-61
2023/10/18 08:55:52;;;;;;;13.95;8.25;;;;;;;;;;4886626;29;20032;-61
2023/10/18 08:58:19;;;;;;;16.90;8.60;;;;;;;;;;4937046;29;20059;-60
2023/10/18 09:03:23;;;;;;;14.45;8.95;;;;;;;;;;4937207;29;20441;-61
2023/10/18 09:06:03;;;;;;;15.48;8.85;;;;;;;;;;4917406;29;20035;-61
2023/10/18 09:08:28;;;;;;;15.70;8.45;;;;;;;;;;4935431;29;20043;-62
2023/10/18 09:10:54;;;;;;;16.52;8.73;;;;;;;;;;4936563;29;20032;-61
2023/10/18 09:18:21;;;;;;;15.65;8.65;;;;;;;;;;4937238;29;20389;-61
2023/10/18 09:20:47;;;;;;;13.88;8.43;;;;;;;;;;4935468;29;20773;-60
2023/10/18 09:23:28;;;;;;;16.20;8.32;;;;;;;;;;4936778;29;20035;-60
2023/10/18 09:28:41;;;;;;;18.73;7.65;;;;;;;;;;4935973;29;20070;-61
2023/10/18 09:31:12;;;;;;;11.95;7.80;;;;;;;;;;4937040;29;20065;-61
2023/10/18 09:33:48;;;;;;;13.30;8.23;;;;;;;;;;4935682;29;20075;-61
2023/10/18 09:36:19;;;;;;;13.00;7.68;;;;;;;;;;4936600;29;20051;-61
2023/10/18 09:38:46;;;;;;;14.75;7.88;;;;;;;;;;4935692;29;20400;-62
2023/10/18 09:41:12;;;;;;;13.13;7.93;;;;;;;;;;4936254;29;20384;-62
2023/10/18 09:43:38;;;;;;;13.95;7.50;;;;;;;;;;4935666;29;20035;-61
2023/10/18 09:46:10;;;;;;;13.70;7.38;;;;;;;;;;4919296;29;20048;-61
2023/10/18 09:48:39;;;;;;;11.20;7.25;;;;;;;;;;4934681;29;20118;-61
2023/10/18 09:51:08;;;;;;;14.13;7.40;;;;;;;;;;4935899;29;20472;-63
2023/10/18 09:53:44;;;;;;;13.43;7.32;;;;;;;;;;4934955;29;20040;-61
2023/10/18 09:56:14;;;;;;;13.55;7.93;;;;;;;;;;4936477;29;20036;-62
2023/10/18 09:58:43;;;;;;;14.75;7.15;;;;;;;;;;4935257;29;20031;-61
2023/10/18 10:02:15;;;;;;;11.52;6.60;;;;;;;;;;4935147;29;20373;-62
2023/10/18 10:04:09;;;;;;;12.52;7.00;;;;;;;;;;4927047;29;20438;-60
2023/10/18 10:06:35;;;;;;;11.60;7.30;;;;;;;;;;4935202;29;20035;-61
2023/10/18 10:09:14;;;;;;;12.75;7.13;;;;;;;;;;4918815;29;20091;-61
2023/10/18 10:11:47;;;;;;;10.73;6.80;;;;;;;;;;4934785;29;20055;-61
2023/10/18 10:14:17;;;;;;;12.20;6.90;;;;;;;;;;4917075;29;20031;-61
2023/10/18 10:17:08;;;;;;;11.27;6.40;;;;;;;;;;4920505;29;20119;-61
2023/10/18 10:19:40;;;;;;;10.43;6.43;;;;;;;;;;4935224;29;20568;-63
2023/10/18 10:22:08;;;;;;;10.38;6.18;;;;;;;;;;4935823;29;20477;-63
2023/10/18 10:24:43;;;;;;;10.57;6.07;;;;;;;;;;4934960;29;20378;-62
2023/10/18 10:27:27;;;;;;;11.60;6.22;;;;;;;;;;4918583;29;20032;-61
2023/10/18 10:32:54;;;;;;;10.68;6.13;;;;;;;;;;4933882;29;20051;-61
2023/10/18 10:35:24;;;;;;;10.52;6.30;;;;;;;;;;4935223;29;20118;-60
2023/10/18 10:37:51;;;;;;;27.15;13.45;;;;;;;;;;4934661;29;20031;-60
2023/10/18 10:43:01;;;;;;;12.23;7.55;;;;;;;;;;4934293;29;20086;-62
2023/10/18 10:45:35;;;;;;;14.65;7.82;;;;;;;;;;4934911;29;20078;-61
2023/10/18 10:48:16;;;;;;;10.73;7.10;;;;;;;;;;4935547;29;20035;-62
2023/10/18 10:50:43;;;;;;;9.68;6.15;;;;;;;;;;4934522;29;20070;-61
2023/10/18 10:53:09;;;;;;;10.38;6.40;;;;;;;;;;4935112;29;20481;-62
2023/10/18 10:55:34;;;;;;;11.55;6.05;;;;;;;;;;4932998;29;20040;-62
2023/10/18 10:58:15;;;;;;;9.20;6.03;;;;;;;;;;4935545;29;20050;-62
2023/10/18 11:01:04;;;;;;;14.30;7.00;;;;;;;;;;4934431;29;20477;-62
2023/10/18 11:03:32;;;;;;;8.63;5.53;;;;;;;;;;4934458;29;20044;-63
2023/10/18 11:06:05;;;;;;;8.98;6.22;;;;;;;;;;4917273;29;20035;-63
2023/10/18 11:08:35;;;;;;;9.80;6.10;;;;;;;;;;4934676;29;20044;-62
2023/10/18 11:11:02;;;;;;;8.18;6.03;;;;;;;;;;4935781;29;20032;-62
2023/10/18 11:13:30;;;;;;;11.40;5.85;;;;;;;;;;4935564;29;20477;-62
2023/10/18 11:15:56;;;;;;;9.13;6.00;;;;;;;;;;4933785;29;20047;-62
2023/10/18 11:18:23;;;;;;;11.63;6.25;;;;;;;;;;4914483;29;20036;-62
2023/10/18 11:20:58;;;;;;;13.27;6.30;;;;;;;;;;4914986;29;20059;-61
2023/10/18 11:23:29;;;;;;;11.02;6.45;;;;;;;;;;4931870;29;20042;-62
2023/10/18 11:25:56;;;;;;;;;;;;;;;;;;4933836;29;20077;-61
2023/10/18 11:28:28;;;;;;;9.18;5.90;;;;;;;;;;4917451;29;19918;-60
2023/10/18 11:30:56;;;;;;;13.52;6.60;;;;;;;;;;4933194;29;20367;-61
2023/10/18 11:33:59;;;;;;;10.18;5.80;;;;;;;;;;4916627;29;20115;-60
2023/10/18 11:36:21;;;;;;;9.95;6.43;;;;;;;;;;4933813;29;20507;-61
2023/10/18 11:39:48;;;;;;;12.73;6.10;;;;;;;;;;4916580;29;20044;-61
2023/10/18 11:41:44;;;;;;;8.38;5.70;;;;;;;;;;4920273;29;20504;-62
2023/10/18 11:44:14;;;;;;;10.10;5.72;;;;;;;;;;4935358;28;20028;-60
2023/10/18 11:47:00;;;;;;;9.17;5.80;;;;;;;;;;4933307;29;20031;-65
2023/10/18 11:49:43;;;;;;;10.10;6.28;;;;;;;;;;4934422;29;20350;-63
2023/10/18 11:52:17;;;;;;;8.82;5.80;;;;;;;;;;4917365;29;20035;-61
2023/10/18 11:54:44;;;;;;;8.88;6.32;;;;;;;;;;4916289;29;20111;-62
2023/10/18 11:57:29;;;;;;;8.80;5.80;;;;;;;;;;4933556;29;20574;-61
2023/10/18 11:59:56;;;;;;;7.40;5.72;;;;;;;;;;4933306;29;20634;-62
2023/10/18 12:02:30;;;;;;;9.88;6.20;;;;;;;;;;4932962;29;20028;-61
2023/10/18 12:04:57;;;;;;;8.73;5.82;;;;;;;;;;4933319;29;20027;-62
2023/10/18 12:07:22;;;;;;;9.93;6.35;;;;;;;;;;4934474;29;20043;-62
2023/10/18 12:09:51;;;;;;;8.90;6.35;;;;;;;;;;4916410;29;20031;-61
2023/10/18 12:12:20;;;;;;;10.10;6.03;;;;;;;;;;4933386;29;20728;-62
2023/10/18 12:14:47;;;;;;;9.40;6.13;;;;;;;;;;4933041;29;20434;-61
2023/10/18 12:17:13;;;;;;;7.90;5.50;;;;;;;;;;4934009;29;20473;-63
2023/10/18 12:19:40;;;;;;;7.53;6.10;;;;;;;;;;4933384;29;20032;-63
2023/10/18 12:22:07;;;;;;;9.63;6.40;;;;;;;;;;4933291;29;20032;-63
2023/10/18 12:24:33;;;;;;;7.68;6.43;;;;;;;;;;4933947;29;20035;-62
2023/10/18 12:29:47;;;;;;;8.07;6.68;;;;;;;;;;4935728;29;20612;-60
2023/10/18 12:32:51;;;;;;;7.97;6.70;;;;;;;;;;4941427;29;20106;-61
2023/10/18 12:35:07;;;;;;;12.88;6.40;;;;;;;;;;4929636;29;20073;-64
2023/10/18 12:37:33;;;;;;;7.60;6.72;;;;;;;;;;4916754;29;20476;-62
2023/10/18 12:39:59;;;;;;;8.93;6.50;;;;;;;;;;4919863;29;20124;-61
2023/10/18 12:42:25;;;;;;;9.15;6.32;;;;;;;;;;4928061;29;20445;-62
2023/10/18 12:44:55;;;;;;;7.40;6.22;;;;;;;;;;4915104;29;20031;-60
2023/10/18 12:47:21;;;;;;;7.45;6.13;;;;;;;;;;4933242;29;20493;-60
2023/10/18 12:49:50;;;;;;;9.65;6.38;;;;;;;;;;4933206;29;20032;-61
2023/10/18 12:53:16;;;;;;;8.70;6.47;;;;;;;;;;4933357;29;20040;-59
2023/10/18 12:57:51;;;;;;;8.20;6.28;;;;;;;;;;4937118;29;20500;-62
2023/10/18 13:00:17;;;;;;;10.63;6.28;;;;;;;;;;4936469;29;20035;-61
2023/10/18 13:05:18;;;;;;;7.97;6.38;;;;;;;;;;4937129;29;20076;-63
2023/10/18 13:07:52;;;;;;;8.55;6.18;;;;;;;;;;4936217;29;20035;-62
2023/10/18 13:10:43;;;;;;;7.45;6.05;;;;;;;;;;4936299;29;20070;-61
2023/10/18 13:13:09;;;;;;;11.50;6.60;;;;;;;;;;4936088;29;20044;-61
2023/10/18 13:15:34;;;;;;;8.82;6.40;;;;;;;;;;4936470;29;20039;-61
2023/10/18 13:18:00;;;;;;;8.25;6.40;;;;;;;;;;4935502;29;20036;-62
2023/10/18 13:20:32;;;;;;;8.73;6.60;;;;;;;;;;4937135;29;20042;-61
2023/10/18 13:22:58;;;;;;;9.65;6.30;;;;;;;;;;4919928;29;20480;-62
2023/10/18 13:25:36;;;;;;;7.45;6.20;;;;;;;;;;4936310;29;20046;-62
2023/10/18 13:28:05;;;;;;;12.15;6.57;;;;;;;;;;4936199;29;20059;-61
2023/10/18 13:30:43;;;;;;;8.57;6.68;;;;;;;;;;4936831;29;20032;-61
2023/10/18 13:33:11;;;;;;;10.18;6.50;;;;;;;;;;4935087;29;20043;-64
2023/10/18 13:35:40;;;;;;;9.55;5.65;;;;;;;;;;4936132;29;20044;-61
2023/10/18 13:38:06;;;;;;;7.68;5.68;;;;;;;;;;4941471;29;20042;-62
2023/10/18 13:40:37;;;;;;;10.35;6.15;;;;;;;;;;4935307;29;20027;-61
2023/10/18 13:43:04;;;;;;;6.22;5.53;;;;;;;;;;4935605;29;20088;-61
2023/10/18 13:45:33;;;;;;;8.43;5.93;;;;;;;;;;4939150;29;20027;-61
2023/10/18 13:47:58;;;;;;;7.95;5.63;;;;;;;;;;4939478;29;20108;-61
2023/10/18 13:50:25;;;;;;;6.43;5.50;;;;;;;;;;4936694;29;20032;-61
2023/10/18 13:52:51;;;;;;;8.68;5.32;;;;;;;;;;4954723;29;20031;-61
2023/10/18 13:55:18;;;;;;;7.80;5.20;;;;;;;;;;4940567;29;20052;-61
2023/10/18 13:57:45;;;;;;;8.30;5.57;;;;;;;;;;4918575;29;20035;-62
2023/10/18 14:00:14;;;;;;;8.40;5.20;;;;;;;;;;4936283;29;20039;-61
2023/10/18 14:02:43;;;;;;;7.63;5.10;;;;;;;;;;4930878;29;20387;-63
2023/10/18 14:05:08;;;;;;;6.82;4.90;;;;;;;;;;4938218;29;20037;-60
2023/10/18 14:07:38;;;;;;;6.55;4.65;;;;;;;;;;4942627;29;20032;-61
2023/10/18 14:10:41;;;;;;;6.40;4.70;;;;;;;;;;4954682;29;20543;-60
2023/10/18 14:12:58;;;;;;;6.55;4.65;;;;;;;;;;4949329;29;20456;-60
2023/10/18 14:15:25;;;;;;;5.68;4.53;;;;;;;;;;4951617;29;20060;-60
2023/10/18 14:17:52;;;;;;;7.47;4.65;;;;;;;;;;4936388;29;20031;-60
2023/10/18 14:20:24;;;;;;;8.10;4.90;;;;;;;;;;4925394;29;20067;-60
2023/10/18 14:22:53;;;;;;;7.10;4.60;;;;;;;;;;4934475;29;20046;-61
2023/10/18 14:25:19;;;;;;;8.00;4.90;;;;;;;;;;4935873;29;20051;-60
2023/10/18 14:27:45;;;;;;;6.95;4.57;;;;;;;;;;4918263;29;20036;-62
2023/10/18 14:30:12;;;;;;;6.25;4.20;;;;;;;;;;4949329;29;20038;-59
2023/10/18 14:32:39;;;;;;;7.43;4.40;;;;;;;;;;4954907;29;20034;-59
2023/10/18 14:35:06;;;;;;;6.78;4.40;;;;;;;;;;4935967;29;20043;-58
2023/10/18 14:37:32;;;;;;;6.53;4.63;;;;;;;;;;4940702;29;20042;-60
2023/10/18 14:39:58;;;;;;;7.55;4.65;;;;;;;;;;4935369;29;20027;-59
2023/10/18 14:42:28;;;;;;;6.38;4.65;;;;;;;;;;4936891;29;20047;-60
2023/10/18 14:44:57;;;;;;;7.60;4.60;;;;;;;;;;4917179;29;20035;-59
2023/10/18 14:47:31;;;;;;;5.95;3.90;;;;;;;;;;4935109;29;20040;-61
2023/10/18 14:49:57;;;;;;;6.90;4.10;;;;;;;;;;4917491;29;20071;-60
2023/10/18 14:52:25;;;;;;;6.28;4.07;;;;;;;;;;4937738;29;20440;-60
2023/10/18 14:54:50;;;;;;;7.03;4.25;;;;;;;;;;4938845;29;20040;-61
2023/10/18 14:57:19;;;;;;;7.57;4.50;;;;;;;;;;4935752;29;20453;-60
2023/10/18 14:59:49;;;;;;;6.45;4.18;;;;;;;;;;4934404;29;20114;-62
2023/10/18 15:02:16;;;;;;;6.35;4.40;;;;;;;;;;4934635;29;20032;-63
2023/10/18 15:04:43;;;;;;;10.85;4.45;;;;;;;;;;4934379;29;20032;-63
2023/10/18 15:07:12;;;;;;;6.38;3.97;;;;;;;;;;4917122;29;20056;-63
2023/10/18 15:09:41;;;;;;;5.60;4.00;;;;;;;;;;4918117;29;20031;-63
2023/10/18 15:12:13;;;;;;;6.85;3.75;;;;;;;;;;4934263;29;20891;-63
2023/10/18 15:14:38;;;;;;;5.53;3.80;;;;;;;;;;4933974;29;20028;-63
2023/10/18 15:17:07;;;;;;;6.40;3.85;;;;;;;;;;4934489;29;20031;-63
2023/10/18 15:19:34;;;;;;;5.00;3.70;;;;;;;;;;4943647;28;20042;-63
2023/10/18 15:21:59;;;;;;;7.60;3.70;;;;;;;;;;4931710;29;20031;-63
2023/10/18 15:24:25;;;;;;;6.55;3.80;;;;;;;;;;4916044;29;20039;-61
2023/10/18 15:26:51;;;;;;;5.85;3.80;;;;;;;;;;4913882;29;20032;-60
2023/10/18 15:29:17;;;;;;;5.63;3.83;;;;;;;;;;4925256;29;20389;-61
2023/10/18 15:31:44;;;;;;;6.28;3.67;;;;;;;;;;4934408;29;20476;-60
2023/10/18 15:34:12;;;;;;;7.93;3.65;;;;;;;;;;4934126;29;20036;-61
2023/10/18 15:36:38;;;;;;;6.97;3.60;;;;;;;;;;4933608;29;20043;-61
2023/10/18 15:39:08;;;;;;;6.90;3.60;;;;;;;;;;4933857;29;20062;-61
2023/10/18 15:41:35;;;;;;;6.60;3.58;;;;;;;;;;4943857;29;20503;-61
2023/10/18 15:44:03;;;;;;;5.95;3.38;;;;;;;;;;4934045;29;20031;-61
2023/10/18 15:46:32;;;;;;;6.22;3.10;;;;;;;;;;4933776;29;20107;-61
2023/10/18 15:49:01;;;;;;;5.63;3.10;;;;;;;;;;4933804;29;20071;-62